Samus Swan — 9HA2333 — position and weather

sailwx.info

Track history (hours):
 
Tides and Currents Weather Stations Pressure Air Temp Water Temp Dewpoint Dewpoint Depression Visibility Wind Speed Wind Dir Waves Ship Positions

Samus Swan

Last reported at 2015-Mar-22 12:33 UTC. Time now 2015-Mar-30 02:18 UTC.
Position N 29°43' W 095°01'.

Length 106 m; draft 6.5 m.

Type: Ship (hazmat cat B). MMSI: 248363000.

Date/timePositionNaut miles runAvg speedWind from/ knotsBaromVisibWave heightAir tempDewpointWater temp
2015-Mar-22 12:33N 29°43' W 095°01'6 6.1
2015-Mar-22 11:33N 29°44' W 095°08'4 0.1
2015-Mar-21 00:32N 29°43' W 095°13'7 6.2
2015-Mar-20 23:27N 29°45' W 095°06'8 8.7
2015-Mar-20 22:34N 29°40' W 094°59'1111.5
2015-Mar-20 21:34N 29°30' W 094°52'  
2015-Mar-16 15:31N 29°14' W 094°42'0 0.0
2015-Mar-16 14:25N 29°14' W 094°42'0 0.0
2015-Mar-16 13:31N 29°14' W 094°42'0 0.0
2015-Mar-14 11:31N 29°14' W 094°42'  
Track history (hours):
 
Tides and Currents Weather Stations Pressure Air Temp Water Temp Dewpoint Dewpoint Depression Visibility Wind Speed Wind Dir Waves Ship Positions

Samus Swan

Last reported at 2015-Mar-22 12:33 UTC. Time now 2015-Mar-30 02:18 UTC.
Position N 29°43' W 095°01'.

Length 106 m; draft 6.5 m.

Type: Ship (hazmat cat B). MMSI: 248363000.

Date/timePositionNaut miles runAvg speedWind from/ knotsBaromVisibWave heightAir tempDewpointWater temp
2015-Mar-22 12:33N 29°43' W 095°01'6 6.1
2015-Mar-22 11:33N 29°44' W 095°08'4 0.1
2015-Mar-21 00:32N 29°43' W 095°13'7 6.2
2015-Mar-20 23:27N 29°45' W 095°06'8 8.7
2015-Mar-20 22:34N 29°40' W 094°59'1111.5
2015-Mar-20 21:34N 29°30' W 094°52'  
2015-Mar-16 15:31N 29°14' W 094°42'0 0.0
2015-Mar-16 14:25N 29°14' W 094°42'0 0.0
2015-Mar-16 13:31N 29°14' W 094°42'0 0.0
2015-Mar-14 11:31N 29°14' W 094°42'  

Dump ship's entire track history